Albany, NY (12201)

8:07 PM EST on December 08, 2016 (GMT -0500)
Whitehall | | Change Station

Elev 226 ft 42.65 °N, 73.80 °W | Updated 1 second ago

Partly Cloudy
Partly Cloudy
32.2 °F
Feels Like 32 °F
N
0.9
Wind Variable Wind from West
Gusts 2.5 mph

Today
High -- | Low -- °F
--% Chance of Precip.
Yesterday
High -- | Low -- °F
Precip. -- in
Pressure 29.91 in
Visibility 10.0 miles
Clouds Few 4000 ft
Windchill 32 °F
Dew Point 17 °F
Humidity 53%
Rainfall 0.00 in
Snow Depth Not available.
7:12 AM 4:21 PM
Waxing Gibbous, 68% visible
METAR KALB 090051Z 28010G19KT 10SM FEW040 00/M08 A2990 RMK AO2 SLP128 T00001083
Pressure 29.91 in
Visibility 10.0 miles
Clouds Few 4000 ft
Windchill 32 °F
Dew Point 17 °F
Humidity 53%
Rainfall 0.00 in
Snow Depth Not available.
7:12 AM 4:21 PM
Waxing Gibbous, 68% visible
METAR KALB 090051Z 28010G19KT 10SM FEW040 00/M08 A2990 RMK AO2 SLP128 T00001083

10-Day Weather Forecast

Almanac

Astronomy

Dec. 08, 2016 Rise Set
Actual Time
Civil Twilight
Nautical Twilight
Astronomical Twilight
Moon
Length of Visible Light
Length of Day
Tomorrow will be .
, % of the Moon is Illuminated

Today's Extremes

State Highs State Lows

Community

WunderPhotos

Upload Photos

1,956,277 photos uploaded!

WunderBlog® & News

Nearby

Air Quality

  Air Quality AQ Index Pollutant
Not available.

Snow Depth

Station Depth Elevation

Earthquake Activity

City Distance Mag. Time & Date
Minimum magnitude displayed is 2.5.

Coastal Water Temperatures

Place Temperature

Stations

Nearby Weather Stations

Station Location Temp. Windchill Dew Point Humidity Wind Precip. Elev Updated Type
                   

Watches & Warnings

There are currently no watches in effect.